createdAt,value
2019-04-07T00:01:26.598Z,52.71
2019-04-07T00:03:55.001Z,52.73
2019-04-07T00:06:24.249Z,52.72
2019-04-07T00:08:53.519Z,52.72
2019-04-07T00:11:21.951Z,52.68
2019-04-07T00:13:50.311Z,52.73
2019-04-07T00:16:18.735Z,52.68
2019-04-07T00:18:47.128Z,52.70
2019-04-07T00:21:15.544Z,52.63
2019-04-07T00:23:44.128Z,52.67
2019-04-07T00:26:12.810Z,52.70
2019-04-07T00:28:41.253Z,52.70
2019-04-07T00:31:09.640Z,52.65
2019-04-07T00:33:38.021Z,52.59
2019-04-07T00:36:06.403Z,52.65
2019-04-07T00:38:34.771Z,52.66
2019-04-07T00:41:03.180Z,52.55
2019-04-07T00:43:31.754Z,52.53
2019-04-07T00:46:00.227Z,52.42
2019-04-07T00:48:28.721Z,52.50
2019-04-07T00:50:57.079Z,52.42
2019-04-07T00:53:25.496Z,52.28
2019-04-07T00:55:54.343Z,52.48
2019-04-07T00:58:22.711Z,52.40
2019-04-07T01:00:51.108Z,52.44
2019-04-07T01:03:19.524Z,52.47
2019-04-07T01:05:47.980Z,52.47
2019-04-07T01:08:17.102Z,52.43
2019-04-07T01:10:45.862Z,52.42
2019-04-07T01:13:14.441Z,52.40
2019-04-07T01:15:43.473Z,52.54
2019-04-07T01:18:11.796Z,52.54
2019-04-07T01:20:40.210Z,52.33
2019-04-07T01:23:08.581Z,52.40
2019-04-07T01:25:36.944Z,52.24
2019-04-07T01:28:05.801Z,52.41
2019-04-07T01:30:34.845Z,52.44
2019-04-07T01:33:04.003Z,52.30
2019-04-07T01:35:32.980Z,52.43
2019-04-07T01:38:01.596Z,52.45
2019-04-07T01:40:29.957Z,52.46
2019-04-07T01:43:02.389Z,52.43
2019-04-07T01:45:41.248Z,52.36
2019-04-07T01:48:14.759Z,52.40
2019-04-07T01:50:50.387Z,52.26
2019-04-07T01:53:35.628Z,52.27
2019-04-07T01:56:20.971Z,52.45
2019-04-07T01:58:51.037Z,52.21
2019-04-07T02:01:31.226Z,52.41
2019-04-07T02:04:01.746Z,52.38
2019-04-07T02:06:34.890Z,52.43
2019-04-07T02:09:11.356Z,52.42
2019-04-07T02:11:58.358Z,52.46
2019-04-07T02:14:37.822Z,52.42
2019-04-07T02:17:10.813Z,52.28
2019-04-07T02:19:49.943Z,52.35
2019-04-07T02:22:25.593Z,52.31
2019-04-07T02:25:05.538Z,52.46
2019-04-07T02:27:38.394Z,52.54
2019-04-07T02:30:19.773Z,52.45
2019-04-07T02:32:53.195Z,52.37
2019-04-07T02:35:32.401Z,52.55
2019-04-07T02:38:14.939Z,52.43
2019-04-07T02:40:52.059Z,52.52
2019-04-07T02:43:27.849Z,52.45
2019-04-07T02:46:00.655Z,52.43
2019-04-07T02:48:42.983Z,52.50
2019-04-07T02:51:15.703Z,52.49
2019-04-07T02:54:02.537Z,52.52
2019-04-07T02:56:52.201Z,52.46
2019-04-07T02:59:29.216Z,52.53
2019-04-07T03:02:12.089Z,52.38
2019-04-07T03:04:46.051Z,52.49
2019-04-07T03:07:20.076Z,52.57
2019-04-07T03:10:06.334Z,52.56
2019-04-07T03:12:37.291Z,52.58
2019-04-07T03:15:13.745Z,52.63
2019-04-07T03:17:46.500Z,52.58
2019-04-07T03:20:25.845Z,52.51
2019-04-07T03:23:09.410Z,52.50
2019-04-07T03:25:52.616Z,52.60
2019-04-07T03:28:33.110Z,52.49
2019-04-07T03:31:21.113Z,52.64
2019-04-07T03:34:01.201Z,52.48
2019-04-07T03:37:02.710Z,52.54
2019-04-07T03:39:22.274Z,52.56
2019-04-07T03:41:53.714Z,52.66
2019-04-07T03:44:26.589Z,52.56
2019-04-07T03:47:10.222Z,52.83
2019-04-07T03:49:58.214Z,52.96
2019-04-07T03:52:28.732Z,53.52
2019-04-07T03:55:04.853Z,53.52
2019-04-07T03:57:35.293Z,53.37
2019-04-07T04:00:09.244Z,53.49
2019-04-07T04:02:48.452Z,53.71
2019-04-07T04:05:30.457Z,53.71
2019-04-07T04:08:09.459Z,53.82
2019-04-07T04:10:40.696Z,53.86
2019-04-07T04:13:11.114Z,53.89
2019-04-07T04:15:41.556Z,53.88
2019-04-07T04:18:09.923Z,53.86
2019-04-07T04:20:38.793Z,53.84
2019-04-07T04:23:07.876Z,53.90
2019-04-07T04:25:36.359Z,53.86
2019-04-07T04:28:05.043Z,53.71
2019-04-07T04:30:34.011Z,53.74
2019-04-07T04:33:02.439Z,53.71
2019-04-07T04:35:30.876Z,53.73
2019-04-07T04:37:59.802Z,53.69
2019-04-07T04:40:28.214Z,53.71
2019-04-07T04:42:56.914Z,53.67
2019-04-07T04:45:26.313Z,53.61
2019-04-07T04:47:54.795Z,53.67
2019-04-07T04:50:23.660Z,53.62
2019-04-07T04:52:52.303Z,53.55
2019-04-07T04:55:20.840Z,53.28
2019-04-07T04:57:49.866Z,53.28
2019-04-07T05:00:18.744Z,53.54
2019-04-07T05:02:47.605Z,53.45
2019-04-07T05:05:16.823Z,53.51
2019-04-07T05:07:55.432Z,53.49
2019-04-07T05:10:15.611Z,53.55
2019-04-07T05:12:44.971Z,53.64
2019-04-07T05:15:14.002Z,53.55
2019-04-07T05:17:43.599Z,53.49
2019-04-07T05:20:12.451Z,53.41
2019-04-07T05:22:41.210Z,53.64
2019-04-07T05:25:09.732Z,53.39
2019-04-07T05:27:38.303Z,53.50
2019-04-07T05:30:07.779Z,53.47
2019-04-07T05:32:36.814Z,53.38
2019-04-07T05:35:07.862Z,53.38
2019-04-07T05:37:36.550Z,53.37
2019-04-07T05:40:05.865Z,53.41
2019-04-07T05:42:34.359Z,53.50
2019-04-07T05:45:02.710Z,53.50
2019-04-07T05:47:31.493Z,53.36
2019-04-07T05:50:02.836Z,53.39
2019-04-07T05:52:30.591Z,53.32
2019-04-07T05:54:59.020Z,53.36
2019-04-07T05:57:30.809Z,53.03
2019-04-07T05:59:57.534Z,53.26
2019-04-07T06:02:27.301Z,53.12
2019-04-07T06:04:58.643Z,53.44
2019-04-07T06:07:31.243Z,53.22
2019-04-07T06:09:56.851Z,53.28
2019-04-07T06:12:25.248Z,53.10
2019-04-07T06:14:53.653Z,53.03
2019-04-07T06:17:24.185Z,53.13
2019-04-07T06:19:52.690Z,53.10
2019-04-07T06:22:21.990Z,53.16
2019-04-07T06:24:51.347Z,53.01
2019-04-07T06:27:19.751Z,53.09
2019-04-07T06:29:48.151Z,53.06
2019-04-07T06:32:16.676Z,52.97
2019-04-07T06:34:46.171Z,52.74
2019-04-07T06:37:15.175Z,52.67
2019-04-07T06:39:44.096Z,52.30
2019-04-07T06:42:13.078Z,51.96
2019-04-07T06:44:41.543Z,52.02
2019-04-07T06:47:23.805Z,51.97
2019-04-07T06:49:59.871Z,51.78
2019-04-07T06:52:30.223Z,51.66
2019-04-07T06:55:10.771Z,51.53
2019-04-07T06:57:57.131Z,51.45
2019-04-07T07:00:44.206Z,51.33
2019-04-07T07:03:16.776Z,51.28
2019-04-07T07:06:03.646Z,51.23
2019-04-07T07:08:43.247Z,51.12
2019-04-07T07:11:28.072Z,51.09
2019-04-07T07:14:13.756Z,50.92
2019-04-07T07:16:56.996Z,50.77
2019-04-07T07:19:28.570Z,50.73
2019-04-07T07:22:15.538Z,50.70
2019-04-07T07:24:42.768Z,50.55
2019-04-07T07:27:12.306Z,50.61
2019-04-07T07:29:40.977Z,50.58
2019-04-07T07:32:09.405Z,50.53
2019-04-07T07:34:39.883Z,50.54
2019-04-07T07:37:08.392Z,50.21
2019-04-07T07:39:36.832Z,50.01
2019-04-07T07:42:05.226Z,49.88
2019-04-07T07:44:36.106Z,49.85
2019-04-07T07:47:03.712Z,49.75
2019-04-07T07:49:35.997Z,49.59
2019-04-07T07:52:02.651Z,49.52
2019-04-07T07:54:31.616Z,49.53
2019-04-07T07:57:00.092Z,49.23
2019-04-07T07:59:33.136Z,48.60
2019-04-07T08:01:58.757Z,47.94
2019-04-07T08:04:27.661Z,47.74
2019-04-07T08:06:56.833Z,47.72
2019-04-07T08:09:26.318Z,47.70
2019-04-07T08:11:55.534Z,47.92
2019-04-07T08:14:23.908Z,48.01
2019-04-07T08:16:53.096Z,47.95
2019-04-07T08:19:25.361Z,47.83
2019-04-07T08:21:52.025Z,47.78
2019-04-07T08:24:20.789Z,47.83
2019-04-07T08:26:50.231Z,47.90
2019-04-07T08:29:18.629Z,47.92
2019-04-07T08:31:47.074Z,48.01
2019-04-07T08:34:15.460Z,48.00
2019-04-07T08:36:45.336Z,47.92
2019-04-07T08:39:22.984Z,47.83
2019-04-07T08:41:45.181Z,47.71
2019-04-07T08:44:14.997Z,47.65
2019-04-07T08:46:44.408Z,47.59
2019-04-07T08:49:12.913Z,47.54
2019-04-07T08:51:41.743Z,47.40
2019-04-07T08:54:10.085Z,47.31
2019-04-07T08:56:38.765Z,47.23
2019-04-07T08:59:10.013Z,47.31
2019-04-07T09:01:37.282Z,47.15
2019-04-07T09:04:05.690Z,46.93
2019-04-07T09:06:34.136Z,46.77
2019-04-07T09:09:03.970Z,46.60
2019-04-07T09:11:33.536Z,46.53
2019-04-07T09:14:04.240Z,46.40
2019-04-07T09:16:53.255Z,46.29
2019-04-07T09:19:22.475Z,46.29
2019-04-07T09:21:55.818Z,46.12
2019-04-07T09:24:44.069Z,46.04
2019-04-07T09:27:17.139Z,46.00
2019-04-07T09:29:52.312Z,45.79
2019-04-07T09:32:22.590Z,45.53
2019-04-07T09:35:01.999Z,45.29
2019-04-07T09:37:32.390Z,44.83
2019-04-07T09:40:17.251Z,44.35
2019-04-07T09:42:49.572Z,43.70
2019-04-07T09:45:19.626Z,43.07
2019-04-07T09:47:49.786Z,42.36
2019-04-07T09:50:27.937Z,41.70
2019-04-07T09:53:17.044Z,41.15
2019-04-07T09:55:59.213Z,40.55
2019-04-07T09:58:44.131Z,39.71
2019-04-07T10:01:19.903Z,38.87
2019-04-07T10:03:53.653Z,38.06
2019-04-07T10:06:39.134Z,37.25
2019-04-07T10:09:23.703Z,36.42
2019-04-07T10:12:10.216Z,35.47
2019-04-07T10:14:56.355Z,34.67
2019-04-07T10:17:29.182Z,33.88
2019-04-07T10:20:06.486Z,33.02
2019-04-07T10:22:55.257Z,32.34
2019-04-07T10:25:37.649Z,31.86
2019-04-07T10:28:12.539Z,31.45
2019-04-07T10:30:58.500Z,31.08
2019-04-07T10:33:29.361Z,30.73
2019-04-07T10:36:06.105Z,30.25
2019-04-07T10:38:36.392Z,29.93
2019-04-07T10:41:15.942Z,29.70
2019-04-07T10:43:55.784Z,29.64
2019-04-07T10:46:28.418Z,29.39
2019-04-07T10:49:14.724Z,29.18
2019-04-07T10:51:45.824Z,29.07
2019-04-07T10:54:22.210Z,28.95
2019-04-07T10:57:07.567Z,28.86
2019-04-07T10:59:49.624Z,29.00
2019-04-07T11:02:31.411Z,29.06
2019-04-07T11:05:01.912Z,28.80
2019-04-07T11:07:32.645Z,28.49
2019-04-07T11:10:03.586Z,28.43
2019-04-07T11:12:45.852Z,28.64
2019-04-07T11:15:22.324Z,28.71
2019-04-07T11:17:52.766Z,28.71
2019-04-07T11:20:38.505Z,29.08
2019-04-07T11:23:13.972Z,29.37
2019-04-07T11:25:44.975Z,29.71
2019-04-07T11:28:24.334Z,30.15
2019-04-07T11:30:54.378Z,30.71
2019-04-07T11:33:24.767Z,31.21
2019-04-07T11:35:54.975Z,31.67
2019-04-07T11:38:27.831Z,32.67
2019-04-07T11:41:17.006Z,33.14
2019-04-07T11:44:02.204Z,33.60
2019-04-07T11:46:41.121Z,34.15
2019-04-07T11:49:13.100Z,34.63
2019-04-07T11:52:00.019Z,35.21
2019-04-07T11:54:49.154Z,35.71
2019-04-07T11:57:19.266Z,36.01
2019-04-07T11:59:55.634Z,36.31
2019-04-07T12:02:43.535Z,36.52
2019-04-07T12:05:31.123Z,37.14
2019-04-07T12:08:10.524Z,37.47
2019-04-07T12:10:54.644Z,37.71
2019-04-07T12:13:26.933Z,37.92
2019-04-07T12:15:57.969Z,38.14
2019-04-07T12:18:28.149Z,38.23
2019-04-07T12:21:20.105Z,38.79
2019-04-07T12:23:58.448Z,39.33
2019-04-07T12:26:46.303Z,39.92
2019-04-07T12:29:19.328Z,40.58
2019-04-07T12:32:02.366Z,41.01
2019-04-07T12:34:33.263Z,41.31
2019-04-07T12:37:18.799Z,41.63
2019-04-07T12:39:50.899Z,41.92
2019-04-07T12:42:33.334Z,41.69
2019-04-07T12:45:15.573Z,41.23
2019-04-07T12:47:49.176Z,41.47
2019-04-07T12:50:28.894Z,41.62
2019-04-07T12:53:15.517Z,41.51
2019-04-07T12:55:53.387Z,41.69
2019-04-07T12:58:33.744Z,41.55
2019-04-07T13:01:16.265Z,41.55
2019-04-07T13:03:55.926Z,41.61
2019-04-07T13:06:32.016Z,41.63
2019-04-07T13:09:05.948Z,41.57
2019-04-07T13:11:39.504Z,41.61
2019-04-07T13:14:16.812Z,41.05
2019-04-07T13:16:58.964Z,41.60
2019-04-07T13:19:28.575Z,41.78
2019-04-07T13:22:01.634Z,41.68
2019-04-07T13:24:45.375Z,40.80
2019-04-07T13:27:35.166Z,41.00
2019-04-07T13:30:07.140Z,41.05
2019-04-07T13:32:43.595Z,41.05
2019-04-07T13:35:14.826Z,41.19
2019-04-07T13:37:51.156Z,40.15
2019-04-07T13:40:21.771Z,40.34
2019-04-07T13:43:04.431Z,41.05
2019-04-07T13:45:49.467Z,41.15
2019-04-07T13:48:20.842Z,41.40
2019-04-07T13:50:51.326Z,41.28
2019-04-07T13:53:37.877Z,41.04
2019-04-07T13:56:12.960Z,40.91
2019-04-07T13:58:55.484Z,40.90
2019-04-07T14:01:41.635Z,40.90
2019-04-07T14:04:14.648Z,41.14
2019-04-07T14:06:50.444Z,41.82
2019-04-07T14:09:27.184Z,41.79
2019-04-07T14:12:10.164Z,41.79
2019-04-07T14:14:36.158Z,41.79
2019-04-07T14:17:12.531Z,41.72
2019-04-07T14:19:45.261Z,41.23
2019-04-07T14:22:15.542Z,41.27
2019-04-07T14:24:46.107Z,40.83
2019-04-07T14:27:32.375Z,40.93
2019-04-07T14:30:02.834Z,41.20
2019-04-07T14:32:36.342Z,41.63
2019-04-07T14:35:08.363Z,41.54
2019-04-07T14:37:53.626Z,41.95
2019-04-07T14:40:32.424Z,42.55
2019-04-07T14:43:02.628Z,42.48
2019-04-07T14:45:32.688Z,42.61
2019-04-07T14:48:21.684Z,42.46
2019-04-07T14:50:56.046Z,41.67
2019-04-07T14:53:42.046Z,42.13
2019-04-07T14:56:12.512Z,42.03
2019-04-07T14:58:48.931Z,42.18
2019-04-07T15:01:20.289Z,42.47
2019-04-07T15:03:48.798Z,42.67
2019-04-07T15:06:17.379Z,42.76
2019-04-07T15:09:06.547Z,43.04
2019-04-07T15:11:38.686Z,43.04
2019-04-07T15:14:07.166Z,43.52
2019-04-07T15:16:36.745Z,44.06
2019-04-07T15:19:05.259Z,44.38
2019-04-07T15:21:33.678Z,44.54
2019-04-07T15:24:05.658Z,44.78
2019-04-07T15:26:32.572Z,44.33
2019-04-07T15:29:05.293Z,44.73
2019-04-07T15:31:33.078Z,45.09
2019-04-07T15:34:04.213Z,44.71
2019-04-07T15:36:31.645Z,44.77
2019-04-07T15:39:01.241Z,45.76
2019-04-07T15:41:29.613Z,45.24
2019-04-07T15:43:58.480Z,45.00
2019-04-07T15:46:27.018Z,44.89
2019-04-07T15:48:56.741Z,45.33
2019-04-07T15:51:26.244Z,44.99
2019-04-07T15:53:55.362Z,45.30
2019-04-07T15:56:24.098Z,45.97
2019-04-07T15:58:52.912Z,46.17
2019-04-07T16:01:21.754Z,46.54
2019-04-07T16:03:52.620Z,46.66
2019-04-07T16:06:20.642Z,46.53
2019-04-07T16:08:49.824Z,46.65
2019-04-07T16:11:18.978Z,46.71
2019-04-07T16:13:47.616Z,47.44
2019-04-07T16:16:16.014Z,48.02
2019-04-07T16:18:45.428Z,48.57
2019-04-07T16:21:14.341Z,48.11
2019-04-07T16:23:43.129Z,48.29
2019-04-07T16:26:11.877Z,48.15
2019-04-07T16:28:43.269Z,47.99
2019-04-07T16:31:10.583Z,47.98
2019-04-07T16:33:39.793Z,47.97
2019-04-07T16:36:09.186Z,48.06
2019-04-07T16:38:38.499Z,47.97
2019-04-07T16:41:07.854Z,47.65
2019-04-07T16:43:37.765Z,48.25
2019-04-07T16:46:06.711Z,48.28
2019-04-07T16:48:39.232Z,48.71
2019-04-07T16:51:05.961Z,48.96
2019-04-07T16:53:37.948Z,48.80
2019-04-07T16:56:05.307Z,48.22
2019-04-07T16:58:37.080Z,47.39
2019-04-07T17:01:04.640Z,46.56
2019-04-07T17:03:33.269Z,46.50
2019-04-07T17:06:02.901Z,46.50
2019-04-07T17:08:31.800Z,46.59
2019-04-07T17:11:04.464Z,46.68
2019-04-07T17:13:39.489Z,46.95
2019-04-07T17:16:02.709Z,47.08
2019-04-07T17:18:43.066Z,47.15
2019-04-07T17:21:15.669Z,47.12
2019-04-07T17:23:45.520Z,47.14
2019-04-07T17:26:14.298Z,47.06
2019-04-07T17:28:45.217Z,47.29
2019-04-07T17:31:14.294Z,47.34
2019-04-07T17:33:43.071Z,47.36
2019-04-07T17:36:15.361Z,47.35
2019-04-07T17:38:44.226Z,47.35
2019-04-07T17:41:15.569Z,47.48
2019-04-07T17:43:59.277Z,47.59
2019-04-07T17:46:44.482Z,47.41
2019-04-07T17:49:33.091Z,47.60
2019-04-07T17:52:19.749Z,47.55
2019-04-07T17:55:06.346Z,47.54
2019-04-07T17:57:42.851Z,47.44
2019-04-07T18:00:22.223Z,47.51
2019-04-07T18:02:54.902Z,47.68
2019-04-07T18:05:26.156Z,47.67
2019-04-07T18:08:01.810Z,47.71
2019-04-07T18:10:34.998Z,47.78
2019-04-07T18:13:22.867Z,47.79
2019-04-07T18:16:12.167Z,47.99
2019-04-07T18:18:59.436Z,47.45
2019-04-07T18:21:49.748Z,47.67
2019-04-07T18:24:29.537Z,48.30
2019-04-07T18:27:15.918Z,48.39
2019-04-07T18:30:00.753Z,48.66
2019-04-07T18:32:45.375Z,48.82
2019-04-07T18:35:19.482Z,48.75
2019-04-07T18:38:08.851Z,48.70
2019-04-07T18:40:37.288Z,48.61
2019-04-07T18:43:08.141Z,48.90
2019-04-07T18:45:47.778Z,48.67
2019-04-07T18:48:24.689Z,48.63
2019-04-07T18:50:53.406Z,48.59
2019-04-07T18:53:26.202Z,48.63
2019-04-07T18:55:58.054Z,48.69
2019-04-07T18:58:28.699Z,49.09
2019-04-07T19:01:14.480Z,48.98
2019-04-07T19:03:53.634Z,48.78
2019-04-07T19:06:26.520Z,48.75
2019-04-07T19:09:00.035Z,48.84
2019-04-07T19:11:34.213Z,49.03
2019-04-07T19:14:30.782Z,49.11
2019-04-07T19:16:49.989Z,48.75
2019-04-07T19:19:16.483Z,48.89
2019-04-07T19:21:47.554Z,48.89
2019-04-07T19:24:21.336Z,48.93
2019-04-07T19:27:17.294Z,49.19
2019-04-07T19:29:41.260Z,49.28
2019-04-07T19:32:27.765Z,49.27
2019-04-07T19:35:15.235Z,49.21
2019-04-07T19:37:47.353Z,49.27
2019-04-07T19:40:27.983Z,48.89
2019-04-07T19:43:03.886Z,48.85
2019-04-07T19:45:46.929Z,49.20
2019-04-07T19:48:17.607Z,49.29
2019-04-07T19:51:00.377Z,49.28
2019-04-07T19:53:32.632Z,49.35
2019-04-07T19:56:18.973Z,49.52
2019-04-07T19:58:48.986Z,49.55
2019-04-07T20:01:29.188Z,49.54
2019-04-07T20:03:59.830Z,49.47
2019-04-07T20:06:48.448Z,48.54
2019-04-07T20:09:24.314Z,48.54
2019-04-07T20:12:06.471Z,49.16
2019-04-07T20:14:47.393Z,49.37
2019-04-07T20:17:24.477Z,49.37
2019-04-07T20:20:11.222Z,49.67
2019-04-07T20:22:58.514Z,49.49
2019-04-07T20:25:28.822Z,49.54
2019-04-07T20:28:10.955Z,49.77
2019-04-07T20:30:51.459Z,49.65
2019-04-07T20:33:31.041Z,49.43
2019-04-07T20:35:59.100Z,49.32
2019-04-07T20:38:29.937Z,49.27
2019-04-07T20:41:12.060Z,48.53
2019-04-07T20:43:40.823Z,48.55
2019-04-07T20:46:10.997Z,48.54
2019-04-07T20:48:43.526Z,48.54
2019-04-07T20:51:17.455Z,48.70
2019-04-07T20:53:48.015Z,48.45
2019-04-07T20:56:23.549Z,48.44
2019-04-07T20:59:01.543Z,48.40
2019-04-07T21:01:31.120Z,48.17
2019-04-07T21:04:07.351Z,48.09
2019-04-07T21:06:58.946Z,48.10
2019-04-07T21:09:27.307Z,48.14
2019-04-07T21:12:00.798Z,48.14
2019-04-07T21:14:43.156Z,48.11
2019-04-07T21:17:18.937Z,48.01
2019-04-07T21:20:01.995Z,48.12
2019-04-07T21:22:38.980Z,48.12
2019-04-07T21:25:15.624Z,48.20
2019-04-07T21:27:52.646Z,48.22
2019-04-07T21:30:39.911Z,48.24
2019-04-07T21:33:15.945Z,48.24
2019-04-07T21:35:58.902Z,48.24
2019-04-07T21:38:31.417Z,48.31
2019-04-07T21:41:01.951Z,48.32
2019-04-07T21:43:31.981Z,48.32
2019-04-07T21:46:20.186Z,48.36
2019-04-07T21:48:49.070Z,48.39
2019-04-07T21:51:19.480Z,48.44
2019-04-07T21:53:49.502Z,48.46
2019-04-07T21:56:32.776Z,48.50
2019-04-07T21:59:03.250Z,48.47
2019-04-07T22:01:48.907Z,48.44
2019-04-07T22:04:25.308Z,48.43
2019-04-07T22:06:59.616Z,48.54
2019-04-07T22:09:30.294Z,48.46
2019-04-07T22:11:58.656Z,48.36
2019-04-07T22:14:27.048Z,48.56
2019-04-07T22:16:55.436Z,48.42
2019-04-07T22:19:24.379Z,48.54
2019-04-07T22:21:55.756Z,48.50
2019-04-07T22:24:22.892Z,48.51
2019-04-07T22:26:51.592Z,48.45
2019-04-07T22:29:20.376Z,48.51
2019-04-07T22:31:51.356Z,48.42
2019-04-07T22:34:20.779Z,48.41
2019-04-07T22:36:49.685Z,48.39
2019-04-07T22:39:18.443Z,48.35
2019-04-07T22:41:47.031Z,48.39
2019-04-07T22:44:15.600Z,48.43
2019-04-07T22:46:48.036Z,48.40
2019-04-07T22:49:14.169Z,48.47
2019-04-07T22:51:44.605Z,48.48
2019-04-07T22:54:12.681Z,48.40
2019-04-07T22:56:41.056Z,48.49
2019-04-07T22:59:10.465Z,48.37
2019-04-07T23:01:39.573Z,48.43
2019-04-07T23:04:07.948Z,48.35
2019-04-07T23:06:36.347Z,48.35
2019-04-07T23:09:06.583Z,48.43
2019-04-07T23:11:35.521Z,48.36
2019-04-07T23:14:04.422Z,48.38
2019-04-07T23:16:32.891Z,48.39
2019-04-07T23:19:01.273Z,48.44
2019-04-07T23:21:29.957Z,48.41
2019-04-07T23:23:58.329Z,48.36
2019-04-07T23:26:26.733Z,48.35
2019-04-07T23:28:55.114Z,48.32
2019-04-07T23:31:23.660Z,48.37
2019-04-07T23:33:52.276Z,48.40
2019-04-07T23:36:20.751Z,48.43
2019-04-07T23:38:49.634Z,48.33
2019-04-07T23:41:18.177Z,48.46
2019-04-07T23:43:46.564Z,48.35
2019-04-07T23:46:22.893Z,48.38
2019-04-07T23:48:45.594Z,48.38
2019-04-07T23:51:14.315Z,48.35
2019-04-07T23:54:07.493Z,48.36
2019-04-07T23:56:36.520Z,48.41
2019-04-07T23:59:06.241Z,48.27
